createdAt,value
2023-01-28T00:00:00.359Z,23.5
2023-01-28T00:01:04.951Z,19.5
2023-01-28T00:02:00.397Z,19.5
2023-01-28T00:03:00.677Z,19.5
2023-01-28T00:04:00.503Z,19.5
2023-01-28T00:05:00.756Z,19.5
2023-01-28T00:06:02.353Z,22.2
2023-01-28T00:07:00.391Z,22.2
2023-01-28T00:08:00.363Z,22.2
2023-01-28T00:09:00.487Z,22.2
2023-01-28T00:10:00.367Z,22.2
2023-01-28T00:11:01.847Z,22.8
2023-01-28T00:12:00.548Z,22.8
2023-01-28T00:13:00.384Z,22.8
2023-01-28T00:14:00.410Z,22.8
2023-01-28T00:15:00.453Z,22.8
2023-01-28T00:16:05.566Z,21.3
2023-01-28T00:17:00.351Z,21.3
2023-01-28T00:18:00.385Z,21.3
2023-01-28T00:19:00.495Z,21.3
2023-01-28T00:20:00.364Z,21.3
2023-01-28T00:21:05.538Z,22.7
2023-01-28T00:22:00.410Z,22.7
2023-01-28T00:23:00.363Z,22.7
2023-01-28T00:24:00.515Z,22.7
2023-01-28T00:25:00.360Z,22.7
2023-01-28T00:26:03.067Z,22.5
2023-01-28T00:27:00.388Z,22.5
2023-01-28T00:28:00.362Z,22.5
2023-01-28T00:29:00.505Z,22.5
2023-01-28T00:30:00.469Z,22.5
2023-01-28T00:31:13.542Z,23.4
2023-01-28T00:32:00.466Z,23.4
2023-01-28T00:33:00.395Z,23.4
2023-01-28T00:34:00.427Z,23.4
2023-01-28T00:35:00.370Z,23.4
2023-01-28T00:36:01.442Z,23.0
2023-01-28T00:37:00.398Z,23.0
2023-01-28T00:38:00.372Z,23.0
2023-01-28T00:39:00.423Z,23.0
2023-01-28T00:40:00.418Z,23.0
2023-01-28T00:41:11.452Z,23.7
2023-01-28T00:42:00.687Z,23.7
2023-01-28T00:43:00.385Z,23.7
2023-01-28T00:44:00.393Z,23.7
2023-01-28T00:45:00.421Z,23.7
2023-01-28T00:46:00.447Z,24.2
2023-01-28T00:47:00.386Z,24.2
2023-01-28T00:48:00.396Z,24.2
2023-01-28T00:49:00.521Z,24.2
2023-01-28T00:50:00.470Z,24.2
2023-01-28T00:51:00.898Z,23.1
2023-01-28T00:52:00.555Z,23.1
2023-01-28T00:53:00.433Z,23.1
2023-01-28T00:54:00.455Z,23.1
2023-01-28T00:55:00.407Z,23.1
2023-01-28T00:56:00.634Z,21.9
2023-01-28T00:57:00.377Z,21.9
2023-01-28T00:58:00.374Z,21.9
2023-01-28T00:59:00.391Z,21.9
2023-01-28T01:00:00.416Z,21.9
2023-01-28T01:01:11.974Z,22.6
2023-01-28T01:02:00.398Z,22.6
2023-01-28T01:03:03.671Z,22.6
2023-01-28T01:04:00.402Z,22.6
2023-01-28T01:05:00.395Z,22.6
2023-01-28T01:06:00.409Z,22.8
2023-01-28T01:07:00.405Z,22.8
2023-01-28T01:08:00.530Z,22.8
2023-01-28T01:09:01.037Z,22.8
2023-01-28T01:10:00.937Z,22.8
2023-01-28T01:11:01.886Z,24.7
2023-01-28T01:12:00.506Z,24.7
2023-01-28T01:13:00.366Z,24.7
2023-01-28T01:14:00.707Z,24.7
2023-01-28T01:15:00.382Z,24.7
2023-01-28T01:16:01.699Z,23.8
2023-01-28T01:17:00.385Z,23.8
2023-01-28T01:18:00.408Z,23.8
2023-01-28T01:19:00.587Z,23.8
2023-01-28T01:20:00.377Z,23.8
2023-01-28T01:21:00.859Z,22.0
2023-01-28T01:22:00.427Z,22.0
2023-01-28T01:23:00.371Z,22.0
2023-01-28T01:24:00.594Z,22.0
2023-01-28T01:25:00.751Z,22.0
2023-01-28T01:26:00.400Z,20.5
2023-01-28T01:27:00.377Z,20.5
2023-01-28T01:28:00.459Z,20.5
2023-01-28T01:29:00.398Z,20.5
2023-01-28T01:30:00.519Z,20.5
2023-01-28T01:31:02.689Z,23.2
2023-01-28T01:32:00.462Z,23.2
2023-01-28T01:33:00.387Z,23.2
2023-01-28T01:34:00.401Z,23.2
2023-01-28T01:35:00.884Z,23.2
2023-01-28T01:36:00.425Z,23.0
2023-01-28T01:37:00.421Z,23.0
2023-01-28T01:38:00.357Z,23.0
2023-01-28T01:39:00.390Z,23.0
2023-01-28T01:40:00.726Z,23.0
2023-01-28T01:41:00.698Z,23.1
2023-01-28T01:42:00.493Z,23.1
2023-01-28T01:43:00.460Z,23.1
2023-01-28T01:44:03.726Z,23.1
2023-01-28T01:45:04.201Z,22.4
2023-01-28T01:46:00.700Z,22.4
2023-01-28T01:47:00.452Z,22.4
2023-01-28T01:48:06.355Z,22.4
2023-01-28T01:49:07.751Z,22.4
2023-01-28T01:50:06.036Z,23.5
2023-01-28T01:51:04.805Z,23.5
2023-01-28T01:52:07.913Z,23.5
2023-01-28T01:53:05.721Z,23.5
2023-01-28T01:54:01.915Z,23.5
2023-01-28T01:55:04.900Z,23.0
2023-01-28T01:56:05.072Z,23.0
2023-01-28T01:57:02.401Z,23.0
2023-01-28T01:58:08.282Z,23.0
2023-01-28T01:59:00.518Z,23.0
2023-01-28T02:00:03.202Z,23.4
2023-01-28T02:01:01.357Z,23.4
2023-01-28T02:02:03.432Z,23.4
2023-01-28T02:03:00.659Z,23.4
2023-01-28T02:04:09.618Z,23.4
2023-01-28T02:05:01.378Z,21.8
2023-01-28T02:06:00.439Z,21.8
2023-01-28T02:07:01.567Z,21.8
2023-01-28T02:08:01.012Z,21.8
2023-01-28T02:09:00.453Z,21.8
2023-01-28T02:10:00.942Z,24.4
2023-01-28T02:11:04.945Z,24.4
2023-01-28T02:12:06.365Z,24.4
2023-01-28T02:13:00.481Z,24.4
2023-01-28T02:14:03.646Z,24.4
2023-01-28T02:15:04.992Z,23.8
2023-01-28T02:16:02.247Z,23.8
2023-01-28T02:17:01.307Z,23.8
2023-01-28T02:18:00.404Z,23.8
2023-01-28T02:19:00.992Z,23.8
2023-01-28T02:20:04.662Z,22.7
2023-01-28T02:21:20.296Z,22.7
2023-01-28T02:22:15.308Z,22.7
2023-01-28T02:23:16.528Z,22.7
2023-01-28T02:24:16.869Z,22.7
2023-01-28T02:25:20.172Z,20.8
2023-01-28T02:26:20.280Z,20.8
2023-01-28T02:27:17.945Z,20.8
2023-01-28T02:28:20.278Z,20.8
2023-01-28T02:29:11.911Z,20.8
2023-01-28T02:30:13.725Z,22.9
2023-01-28T02:31:18.148Z,22.9
2023-01-28T02:32:10.272Z,22.9
2023-01-28T02:33:07.230Z,22.9
2023-01-28T02:34:10.317Z,22.9
2023-01-28T02:35:10.375Z,21.9
2023-01-28T02:36:11.271Z,21.9
2023-01-28T02:37:11.197Z,21.9
2023-01-28T02:38:14.169Z,21.9
2023-01-28T02:39:06.612Z,21.9
2023-01-28T02:40:07.668Z,21.8
2023-01-28T02:41:05.560Z,21.8
2023-01-28T02:42:05.493Z,21.8
2023-01-28T02:43:00.361Z,21.8
2023-01-28T02:44:01.654Z,21.8
2023-01-28T02:45:00.394Z,22.2
2023-01-28T02:46:10.985Z,22.2
2023-01-28T02:47:00.378Z,22.2
2023-01-28T02:48:00.493Z,22.2
2023-01-28T02:49:01.436Z,22.2
2023-01-28T02:50:05.421Z,22.9
2023-01-28T02:51:08.876Z,22.9
2023-01-28T02:52:10.465Z,22.9
2023-01-28T02:53:11.866Z,22.9
2023-01-28T02:54:11.753Z,22.9
2023-01-28T02:55:10.098Z,23.9
2023-01-28T02:56:13.572Z,23.9
2023-01-28T02:57:18.037Z,23.9
2023-01-28T02:58:09.879Z,23.9
2023-01-28T02:59:09.979Z,23.9
2023-01-28T03:00:01.364Z,23.6
2023-01-28T03:01:09.699Z,23.6
2023-01-28T03:02:11.646Z,23.6
2023-01-28T03:03:14.529Z,23.6
2023-01-28T03:04:07.109Z,23.6
2023-01-28T03:05:10.026Z,22.2
2023-01-28T03:06:07.527Z,22.2
2023-01-28T03:07:04.512Z,22.2
2023-01-28T03:08:03.845Z,22.2
2023-01-28T03:09:06.653Z,22.2
2023-01-28T03:10:04.423Z,24.3
2023-01-28T03:11:00.457Z,24.3
2023-01-28T03:12:03.881Z,24.3
2023-01-28T03:13:00.540Z,24.3
2023-01-28T03:14:00.820Z,24.3
2023-01-28T03:15:07.416Z,24.1
2023-01-28T03:16:00.711Z,24.1
2023-01-28T03:17:02.666Z,24.1
2023-01-28T03:18:03.795Z,24.1
2023-01-28T03:19:01.384Z,24.1
2023-01-28T03:20:00.586Z,24.7
2023-01-28T03:21:08.269Z,24.7
2023-01-28T03:22:00.667Z,24.7
2023-01-28T03:23:08.051Z,24.7
2023-01-28T03:24:08.384Z,24.7
2023-01-28T03:25:01.588Z,24.2
2023-01-28T03:26:03.434Z,24.2
2023-01-28T03:27:08.987Z,24.2
2023-01-28T03:28:04.545Z,24.2
2023-01-28T03:29:06.953Z,24.2
2023-01-28T03:30:06.397Z,25.3
2023-01-28T03:31:05.101Z,25.3
2023-01-28T03:32:00.645Z,25.3
2023-01-28T03:33:01.879Z,25.3
2023-01-28T03:34:02.854Z,25.3
2023-01-28T03:35:00.641Z,24.5
2023-01-28T03:36:01.255Z,24.5
2023-01-28T03:37:00.511Z,24.5
2023-01-28T03:38:01.094Z,24.5
2023-01-28T03:39:01.016Z,24.5
2023-01-28T03:40:03.058Z,24.1
2023-01-28T03:41:02.270Z,24.1
2023-01-28T03:42:05.121Z,24.1
2023-01-28T03:43:00.371Z,24.1
2023-01-28T03:44:00.388Z,24.1
2023-01-28T03:45:00.622Z,24.4
2023-01-28T03:46:00.895Z,24.4
2023-01-28T03:47:00.365Z,24.4
2023-01-28T03:48:00.381Z,24.4
2023-01-28T03:49:00.362Z,24.4
2023-01-28T03:50:00.480Z,24.0
2023-01-28T03:51:00.404Z,24.0
2023-01-28T03:52:00.503Z,24.0
2023-01-28T03:53:00.380Z,24.0
2023-01-28T03:54:00.374Z,24.0
2023-01-28T03:55:00.420Z,25.1
2023-01-28T03:56:00.452Z,25.1
2023-01-28T03:57:00.362Z,25.1
2023-01-28T03:58:00.405Z,25.1
2023-01-28T03:59:00.365Z,25.1
2023-01-28T04:00:00.374Z,24.7
2023-01-28T04:01:00.363Z,24.7
2023-01-28T04:02:00.475Z,24.7
2023-01-28T04:03:00.426Z,24.7
2023-01-28T04:04:00.440Z,24.7
2023-01-28T04:05:00.395Z,25.2
2023-01-28T04:06:04.064Z,25.2
2023-01-28T04:07:00.459Z,25.2
2023-01-28T04:08:00.487Z,25.2
2023-01-28T04:09:00.361Z,25.2
2023-01-28T04:10:00.396Z,25.6
2023-01-28T04:11:00.711Z,25.6
2023-01-28T04:12:00.629Z,25.6
2023-01-28T04:13:00.402Z,25.6
2023-01-28T04:14:00.457Z,25.6
2023-01-28T04:15:00.376Z,25.3
2023-01-28T04:16:00.488Z,25.3
2023-01-28T04:17:00.612Z,25.3
2023-01-28T04:18:00.393Z,25.3
2023-01-28T04:19:00.355Z,25.3
2023-01-28T04:20:00.402Z,24.9
2023-01-28T04:21:00.378Z,24.9
2023-01-28T04:22:00.402Z,24.9
2023-01-28T04:23:00.701Z,24.9
2023-01-28T04:24:00.435Z,24.9
2023-01-28T04:25:00.391Z,25.1
2023-01-28T04:26:00.782Z,25.1
2023-01-28T04:27:00.482Z,25.1
2023-01-28T04:28:00.437Z,25.1
2023-01-28T04:29:00.413Z,25.1
2023-01-28T04:30:00.379Z,22.9
2023-01-28T04:31:00.439Z,22.9
2023-01-28T04:32:00.408Z,22.9
2023-01-28T04:33:00.380Z,22.9
2023-01-28T04:34:00.397Z,22.9
2023-01-28T04:35:00.417Z,23.0
2023-01-28T04:36:00.405Z,23.0
2023-01-28T04:37:00.368Z,23.0
2023-01-28T04:38:00.399Z,23.0
2023-01-28T04:39:00.463Z,23.0
2023-01-28T04:40:00.376Z,23.6
2023-01-28T04:41:00.615Z,23.6
2023-01-28T04:42:00.383Z,23.6
2023-01-28T04:43:00.696Z,23.6
2023-01-28T04:44:00.374Z,23.6
2023-01-28T04:45:00.399Z,23.9
2023-01-28T04:46:00.379Z,23.9
2023-01-28T04:47:00.397Z,23.9
2023-01-28T04:48:00.420Z,23.9
2023-01-28T04:49:00.516Z,23.9
2023-01-28T04:50:00.453Z,25.4
2023-01-28T04:51:00.407Z,25.4
2023-01-28T04:52:00.514Z,25.4
2023-01-28T04:53:00.455Z,25.4
2023-01-28T04:54:00.413Z,25.4
2023-01-28T04:55:00.370Z,26.7
2023-01-28T04:56:00.427Z,26.7
2023-01-28T04:57:00.372Z,26.7
2023-01-28T04:58:00.493Z,26.7
2023-01-28T04:59:00.621Z,26.7
2023-01-28T05:00:00.436Z,27.4
2023-01-28T05:01:00.506Z,27.4
2023-01-28T05:02:00.627Z,27.4
2023-01-28T05:03:00.509Z,27.4
2023-01-28T05:04:00.388Z,27.4
2023-01-28T05:05:00.365Z,27.2
2023-01-28T05:06:00.374Z,27.2
2023-01-28T05:07:00.371Z,27.2
2023-01-28T05:08:00.402Z,27.2
2023-01-28T05:09:00.660Z,27.2
2023-01-28T05:10:00.407Z,26.5
2023-01-28T05:11:00.421Z,26.5
2023-01-28T05:12:00.389Z,26.5
2023-01-28T05:13:00.380Z,26.5
2023-01-28T05:14:00.414Z,26.5
2023-01-28T05:15:00.387Z,26.0
2023-01-28T05:16:00.895Z,26.0
2023-01-28T05:17:00.442Z,26.0
2023-01-28T05:18:00.644Z,26.0
2023-01-28T05:19:01.161Z,26.0
2023-01-28T05:20:00.379Z,25.7
2023-01-28T05:21:00.376Z,25.7
2023-01-28T05:22:00.386Z,25.7
2023-01-28T05:23:00.381Z,25.7
2023-01-28T05:24:00.479Z,25.7
2023-01-28T05:25:00.688Z,27.0
2023-01-28T05:26:00.379Z,27.0
2023-01-28T05:27:00.362Z,27.0
2023-01-28T05:28:00.392Z,27.0
2023-01-28T05:29:00.394Z,27.0
2023-01-28T05:30:00.427Z,25.8
2023-01-28T05:31:06.134Z,25.8
2023-01-28T05:32:00.398Z,25.8
2023-01-28T05:33:00.380Z,25.8
2023-01-28T05:34:00.468Z,25.8
2023-01-28T05:35:00.404Z,27.3
2023-01-28T05:36:00.383Z,27.3
2023-01-28T05:37:00.396Z,27.3
2023-01-28T05:38:00.384Z,27.3
2023-01-28T05:39:00.367Z,27.3
2023-01-28T05:40:00.356Z,26.5
2023-01-28T05:41:00.411Z,26.5
2023-01-28T05:42:00.444Z,26.5
2023-01-28T05:43:00.386Z,26.5
2023-01-28T05:44:00.455Z,26.5
2023-01-28T05:45:00.400Z,27.3
2023-01-28T05:46:00.443Z,27.3
2023-01-28T05:47:00.390Z,27.3
2023-01-28T05:48:00.364Z,27.3
2023-01-28T05:49:00.372Z,27.3
2023-01-28T05:50:00.377Z,25.3
2023-01-28T05:51:00.509Z,25.3
2023-01-28T05:52:00.510Z,25.3
2023-01-28T05:53:00.448Z,25.3
2023-01-28T05:54:00.388Z,25.3
2023-01-28T05:55:00.419Z,26.0
2023-01-28T05:56:00.419Z,26.0
2023-01-28T05:57:00.403Z,26.0
2023-01-28T05:58:00.487Z,26.0
2023-01-28T05:59:00.380Z,26.0
2023-01-28T06:00:00.366Z,25.8
2023-01-28T06:01:00.506Z,25.8
2023-01-28T06:02:00.494Z,25.8
2023-01-28T06:03:00.327Z,25.8
2023-01-28T06:04:00.430Z,25.8
2023-01-28T06:05:00.495Z,25.8
2023-01-28T06:06:00.315Z,25.8
2023-01-28T06:07:00.362Z,25.8
2023-01-28T06:08:00.312Z,25.8
2023-01-28T06:09:00.321Z,25.8
2023-01-28T06:10:00.480Z,26.1
2023-01-28T06:11:00.310Z,26.1
2023-01-28T06:12:00.340Z,26.1
2023-01-28T06:13:00.325Z,26.1
2023-01-28T06:14:00.313Z,26.1
2023-01-28T06:15:00.311Z,25.0
2023-01-28T06:16:00.750Z,25.0
2023-01-28T06:17:00.354Z,25.0
2023-01-28T06:18:00.336Z,25.0
2023-01-28T06:19:00.327Z,25.0
2023-01-28T06:20:00.278Z,23.6
2023-01-28T06:21:00.303Z,23.6
2023-01-28T06:22:00.329Z,23.6
2023-01-28T06:23:00.450Z,23.6
2023-01-28T06:24:00.345Z,23.6
2023-01-28T06:25:00.315Z,23.5
2023-01-28T06:26:00.437Z,23.5
2023-01-28T06:27:00.354Z,23.5
2023-01-28T06:28:00.387Z,23.5
2023-01-28T06:29:00.290Z,23.5
2023-01-28T06:30:00.493Z,22.3
2023-01-28T06:31:00.302Z,22.3
2023-01-28T06:32:00.388Z,22.3
2023-01-28T06:33:00.712Z,22.3
2023-01-28T06:34:00.335Z,22.3
2023-01-28T06:35:00.283Z,22.1
2023-01-28T06:36:02.813Z,22.1
2023-01-28T06:37:00.342Z,22.1
2023-01-28T06:38:00.306Z,22.1
2023-01-28T06:39:00.353Z,22.1
2023-01-28T06:40:00.320Z,22.3
2023-01-28T06:41:00.316Z,22.3
2023-01-28T06:42:00.357Z,22.3
2023-01-28T06:43:00.361Z,22.3
2023-01-28T06:44:00.459Z,20.8
2023-01-28T06:45:00.385Z,20.8
2023-01-28T06:46:00.661Z,20.8
2023-01-28T06:47:00.399Z,20.8
2023-01-28T06:48:00.366Z,20.8
2023-01-28T06:49:00.399Z,21.2
2023-01-28T06:50:00.429Z,21.2
2023-01-28T06:51:00.421Z,21.2
2023-01-28T06:52:00.575Z,21.2
2023-01-28T06:53:00.358Z,21.2
2023-01-28T06:54:00.552Z,20.9
2023-01-28T06:55:00.456Z,20.9
2023-01-28T06:56:00.438Z,20.9
2023-01-28T06:57:00.417Z,20.9
2023-01-28T06:58:00.395Z,20.9
2023-01-28T06:59:00.471Z,21.4
2023-01-28T07:00:00.397Z,21.4
2023-01-28T07:01:00.416Z,21.4
2023-01-28T07:02:00.517Z,21.4
2023-01-28T07:03:00.559Z,21.4
2023-01-28T07:04:00.422Z,21.0
2023-01-28T07:05:00.407Z,21.0
2023-01-28T07:06:00.382Z,21.0
2023-01-28T07:07:00.423Z,21.0
2023-01-28T07:08:00.423Z,21.0
2023-01-28T07:09:00.449Z,20.7
2023-01-28T07:10:00.698Z,20.7
2023-01-28T07:11:00.387Z,20.7
2023-01-28T07:12:00.433Z,20.7
2023-01-28T07:13:00.404Z,20.7
2023-01-28T07:14:00.504Z,21.5
2023-01-28T07:15:00.379Z,21.5
2023-01-28T07:16:00.608Z,21.5
2023-01-28T07:17:00.473Z,21.5
2023-01-28T07:18:01.100Z,21.5
2023-01-28T07:19:00.499Z,22.0
2023-01-28T07:20:00.457Z,22.0
2023-01-28T07:21:00.643Z,22.0
2023-01-28T07:22:00.396Z,22.0
2023-01-28T07:23:00.408Z,22.0
2023-01-28T07:24:00.480Z,21.6
2023-01-28T07:25:00.403Z,21.6
2023-01-28T07:26:02.609Z,21.6
2023-01-28T07:27:00.407Z,21.6
2023-01-28T07:28:00.422Z,21.6
2023-01-28T07:29:00.377Z,21.5
2023-01-28T07:30:00.466Z,21.5
2023-01-28T07:31:00.585Z,21.5
2023-01-28T07:32:00.506Z,21.5
2023-01-28T07:33:00.758Z,21.5
2023-01-28T07:34:00.369Z,23.1
2023-01-28T07:35:00.405Z,23.1
2023-01-28T07:36:00.355Z,23.1
2023-01-28T07:37:00.366Z,23.1
2023-01-28T07:38:00.831Z,23.1
2023-01-28T07:39:00.376Z,22.4
2023-01-28T07:40:00.572Z,22.4
2023-01-28T07:41:00.388Z,22.4
2023-01-28T07:42:00.796Z,22.4
2023-01-28T07:43:00.415Z,22.4
2023-01-28T07:44:00.605Z,22.2
2023-01-28T07:45:00.385Z,22.2
2023-01-28T07:46:00.411Z,22.2
2023-01-28T07:47:00.478Z,22.2
2023-01-28T07:48:03.164Z,22.2
2023-01-28T07:49:00.372Z,21.9
2023-01-28T07:50:00.459Z,21.9
2023-01-28T07:51:00.371Z,21.9
2023-01-28T07:52:00.432Z,21.9
2023-01-28T07:53:02.116Z,21.9
2023-01-28T07:54:00.367Z,23.6
2023-01-28T07:55:00.402Z,23.6
2023-01-28T07:56:00.564Z,23.6
2023-01-28T07:57:00.476Z,23.6
2023-01-28T07:58:02.015Z,23.6
2023-01-28T07:59:00.419Z,22.0
2023-01-28T08:00:00.473Z,22.0
2023-01-28T08:01:00.968Z,22.0
2023-01-28T08:02:00.413Z,22.0
2023-01-28T08:03:03.837Z,22.0
2023-01-28T08:04:00.407Z,22.2
2023-01-28T08:05:00.503Z,22.2
2023-01-28T08:06:00.452Z,22.2
2023-01-28T08:07:00.389Z,22.2
2023-01-28T08:08:00.387Z,22.2
2023-01-28T08:09:00.363Z,22.2
2023-01-28T08:10:00.575Z,22.2
2023-01-28T08:11:06.571Z,22.2
2023-01-28T08:12:01.025Z,22.2
2023-01-28T08:13:00.526Z,22.2
2023-01-28T08:14:00.551Z,22.3
2023-01-28T08:15:00.389Z,22.3
2023-01-28T08:16:00.775Z,22.3
2023-01-28T08:17:00.411Z,22.3
2023-01-28T08:18:00.419Z,22.3
2023-01-28T08:19:00.408Z,22.5
2023-01-28T08:20:00.403Z,22.5
2023-01-28T08:21:00.381Z,22.5
2023-01-28T08:22:00.355Z,22.5
2023-01-28T08:23:11.371Z,22.5
2023-01-28T08:24:00.463Z,22.2
2023-01-28T08:25:00.395Z,22.2
2023-01-28T08:26:00.418Z,22.2
2023-01-28T08:27:00.363Z,22.2
2023-01-28T08:28:01.306Z,22.2
2023-01-28T08:29:00.409Z,23.0
2023-01-28T08:30:00.406Z,23.0
2023-01-28T08:31:00.879Z,23.0
2023-01-28T08:32:00.425Z,23.0
2023-01-28T08:33:00.573Z,23.0
2023-01-28T08:34:02.233Z,23.6
2023-01-28T08:35:00.390Z,23.6
2023-01-28T08:36:02.813Z,23.6
2023-01-28T08:37:00.389Z,23.6
2023-01-28T08:38:01.985Z,23.6
2023-01-28T08:39:00.387Z,23.1
2023-01-28T08:40:00.406Z,23.1
2023-01-28T08:41:00.404Z,23.1
2023-01-28T08:42:00.370Z,23.1
2023-01-28T08:43:00.714Z,23.1
2023-01-28T08:44:00.388Z,21.3
2023-01-28T08:45:00.365Z,21.3
2023-01-28T08:46:00.443Z,21.3
2023-01-28T08:47:00.498Z,21.3
2023-01-28T08:48:03.161Z,21.3
2023-01-28T08:49:00.377Z,21.4
2023-01-28T08:50:00.380Z,21.4
2023-01-28T08:51:00.417Z,21.4
2023-01-28T08:52:00.358Z,21.4
2023-01-28T08:53:03.594Z,21.4
2023-01-28T08:54:00.495Z,22.6
2023-01-28T08:55:00.392Z,22.6
2023-01-28T08:56:00.372Z,22.6
2023-01-28T08:57:00.355Z,22.6
2023-01-28T08:58:03.570Z,22.6
2023-01-28T08:59:00.408Z,23.5
2023-01-28T09:00:00.373Z,23.5
2023-01-28T09:01:05.031Z,23.5
2023-01-28T09:02:00.373Z,23.5
2023-01-28T09:03:00.721Z,23.5
2023-01-28T09:04:00.462Z,23.0
2023-01-28T09:05:00.403Z,23.0
2023-01-28T09:06:03.839Z,23.0
2023-01-28T09:07:00.362Z,23.0
2023-01-28T09:08:01.507Z,23.0
2023-01-28T09:09:01.167Z,24.6
2023-01-28T09:10:00.629Z,24.6
2023-01-28T09:11:00.659Z,24.6
2023-01-28T09:12:00.414Z,24.6
2023-01-28T09:13:05.640Z,24.6
2023-01-28T09:14:00.434Z,23.8
2023-01-28T09:15:00.409Z,23.8
2023-01-28T09:16:04.163Z,23.8
2023-01-28T09:17:00.368Z,23.8
2023-01-28T09:18:00.869Z,23.8
2023-01-28T09:19:00.377Z,22.0
2023-01-28T09:20:00.747Z,22.0
2023-01-28T09:21:03.739Z,22.0
2023-01-28T09:22:03.143Z,22.0
2023-01-28T09:23:01.129Z,22.0
2023-01-28T09:24:00.461Z,22.4
2023-01-28T09:25:00.424Z,22.4
2023-01-28T09:26:01.099Z,22.4
2023-01-28T09:27:00.360Z,22.4
2023-01-28T09:28:00.788Z,22.4
2023-01-28T09:29:00.384Z,19.7
2023-01-28T09:30:00.380Z,19.7
2023-01-28T09:31:03.487Z,19.7
2023-01-28T09:32:00.962Z,19.7
2023-01-28T09:33:00.390Z,19.7
2023-01-28T09:34:00.425Z,20.0
2023-01-28T09:35:00.436Z,20.0
2023-01-28T09:36:01.466Z,20.0
2023-01-28T09:37:00.493Z,20.0
2023-01-28T09:38:00.379Z,20.0
2023-01-28T09:39:01.836Z,16.8
2023-01-28T09:40:01.437Z,16.8
2023-01-28T09:41:07.475Z,16.8
2023-01-28T09:42:13.583Z,16.8
2023-01-28T09:43:14.835Z,16.8
2023-01-28T09:44:05.859Z,18.1
2023-01-28T09:45:10.454Z,18.1
2023-01-28T09:46:04.273Z,18.1
2023-01-28T09:47:03.868Z,18.1
2023-01-28T09:48:03.835Z,18.1
2023-01-28T09:49:08.764Z,17.7
2023-01-28T09:50:04.643Z,17.7
2023-01-28T09:51:00.517Z,17.7
2023-01-28T09:52:00.387Z,17.7
2023-01-28T09:53:14.549Z,17.7
2023-01-28T09:54:10.209Z,18.2
2023-01-28T09:55:14.066Z,18.2
2023-01-28T09:56:02.191Z,18.2
2023-01-28T09:57:11.065Z,18.2
2023-01-28T09:58:00.897Z,18.2
2023-01-28T09:59:16.191Z,18.8
2023-01-28T10:00:00.456Z,18.8
2023-01-28T10:01:17.758Z,18.8
2023-01-28T10:02:03.620Z,18.8
2023-01-28T10:03:13.585Z,18.8
2023-01-28T10:04:06.257Z,19.4
2023-01-28T10:05:17.943Z,19.4
2023-01-28T10:06:20.313Z,19.4
2023-01-28T10:07:19.207Z,19.4
2023-01-28T10:08:20.275Z,19.1
2023-01-28T10:09:10.341Z,19.1
2023-01-28T10:10:10.328Z,19.1
2023-01-28T10:11:20.315Z,19.1
2023-01-28T10:12:20.277Z,19.1
2023-01-28T10:13:14.999Z,19.1
2023-01-28T10:14:09.452Z,18.9
2023-01-28T10:15:19.564Z,18.9
2023-01-28T10:16:14.582Z,18.9
2023-01-28T10:17:11.071Z,18.9
2023-01-28T10:18:16.022Z,18.9
2023-01-28T10:19:05.944Z,19.1
2023-01-28T10:20:10.311Z,19.1
2023-01-28T10:21:07.115Z,19.1
2023-01-28T10:22:06.440Z,19.1
2023-01-28T10:23:10.822Z,19.1
2023-01-28T10:24:04.424Z,18.1
2023-01-28T10:25:05.142Z,18.1
2023-01-28T10:26:10.536Z,18.1
2023-01-28T10:27:01.640Z,18.1
2023-01-28T10:28:01.775Z,18.1
2023-01-28T10:29:10.667Z,17.7
2023-01-28T10:30:20.273Z,17.7
2023-01-28T10:31:00.453Z,17.7
2023-01-28T10:32:13.600Z,17.7
2023-01-28T10:33:20.281Z,17.5
2023-01-28T10:34:01.089Z,17.5
2023-01-28T10:35:00.729Z,17.5
2023-01-28T10:36:00.494Z,17.5
2023-01-28T10:37:00.420Z,17.5
2023-01-28T10:38:05.908Z,17.5
2023-01-28T10:39:00.490Z,18.7
2023-01-28T10:40:00.813Z,18.7
2023-01-28T10:41:03.273Z,18.7
2023-01-28T10:42:00.385Z,18.7
2023-01-28T10:43:00.586Z,18.7
2023-01-28T10:44:00.542Z,17.4
2023-01-28T10:45:12.271Z,17.4
2023-01-28T10:46:13.281Z,17.4
2023-01-28T10:47:09.375Z,17.4
2023-01-28T10:48:12.071Z,16.5
2023-01-28T10:49:14.181Z,16.5
2023-01-28T10:50:03.624Z,16.5
2023-01-28T10:51:02.109Z,16.5
2023-01-28T10:52:09.653Z,16.5
2023-01-28T10:53:02.826Z,16.5
2023-01-28T10:54:00.827Z,17.4
2023-01-28T10:55:04.255Z,17.4
2023-01-28T10:56:03.078Z,17.4
2023-01-28T10:57:02.728Z,17.4
2023-01-28T10:58:03.695Z,17.4
2023-01-28T10:59:02.462Z,15.0
2023-01-28T11:00:20.311Z,15.0
2023-01-28T11:01:03.943Z,15.0
2023-01-28T11:02:03.136Z,15.0
2023-01-28T11:03:00.421Z,15.0
2023-01-28T11:04:00.441Z,15.3
2023-01-28T11:05:02.319Z,15.3
2023-01-28T11:06:01.990Z,15.3
2023-01-28T11:07:01.381Z,15.3
2023-01-28T11:08:03.288Z,15.3
2023-01-28T11:09:01.493Z,15.3
2023-01-28T11:10:00.802Z,15.3
2023-01-28T11:11:00.377Z,15.3
2023-01-28T11:12:11.426Z,15.3
2023-01-28T11:13:03.761Z,14.1
2023-01-28T11:14:00.382Z,14.1
2023-01-28T11:15:03.297Z,14.1
2023-01-28T11:16:11.408Z,14.1
2023-01-28T11:17:00.527Z,14.1
2023-01-28T11:18:03.525Z,13.0
2023-01-28T11:19:03.355Z,13.0
2023-01-28T11:20:10.040Z,13.0
2023-01-28T11:21:04.237Z,13.0
2023-01-28T11:22:01.559Z,13.0
2023-01-28T11:23:00.442Z,13.2
2023-01-28T11:24:04.790Z,13.2
2023-01-28T11:25:17.006Z,13.2
2023-01-28T11:26:07.749Z,13.2
2023-01-28T11:27:14.052Z,13.2
2023-01-28T11:28:04.814Z,11.7
2023-01-28T11:29:00.514Z,11.7
2023-01-28T11:30:01.608Z,11.7
2023-01-28T11:31:02.417Z,11.7
2023-01-28T11:32:00.525Z,11.7
2023-01-28T11:33:15.129Z,12.6
2023-01-28T11:34:03.582Z,12.6
2023-01-28T11:35:00.405Z,12.6
2023-01-28T11:36:12.774Z,12.6
2023-01-28T11:37:03.949Z,12.6
2023-01-28T11:38:00.822Z,12.0
2023-01-28T11:39:18.882Z,12.0
2023-01-28T11:40:12.574Z,12.0
2023-01-28T11:41:00.531Z,12.0
2023-01-28T11:42:13.611Z,12.0
2023-01-28T11:43:00.424Z,11.6
2023-01-28T11:44:10.333Z,11.6
2023-01-28T11:45:00.458Z,11.6
2023-01-28T11:46:19.947Z,11.6
2023-01-28T11:47:08.622Z,11.6
2023-01-28T11:48:16.400Z,11.1
2023-01-28T11:49:11.486Z,11.1
2023-01-28T11:50:18.142Z,11.1
2023-01-28T11:51:17.758Z,11.1
2023-01-28T11:52:13.608Z,11.1
2023-01-28T11:53:07.085Z,10.4
2023-01-28T11:54:12.941Z,10.4
2023-01-28T11:55:20.308Z,10.4
2023-01-28T11:56:14.934Z,10.4
2023-01-28T11:57:16.498Z,10.4
2023-01-28T11:58:11.344Z,9.9
2023-01-28T11:59:20.325Z,9.9
2023-01-28T12:00:11.570Z,9.9
2023-01-28T12:01:09.077Z,9.9
2023-01-28T12:02:20.304Z,9.9
2023-01-28T12:03:20.303Z,9.7
2023-01-28T12:04:10.332Z,9.7
2023-01-28T12:05:11.123Z,9.7
2023-01-28T12:06:11.357Z,9.7
2023-01-28T12:07:13.693Z,9.7
2023-01-28T12:08:11.210Z,9.7
2023-01-28T12:09:14.311Z,9.7
2023-01-28T12:10:17.302Z,9.7
2023-01-28T12:11:20.277Z,9.7
2023-01-28T12:12:17.686Z,9.7
2023-01-28T12:13:10.939Z,11.2
2023-01-28T12:14:12.144Z,11.2
2023-01-28T12:15:10.359Z,11.2
2023-01-28T12:16:17.215Z,11.2
2023-01-28T12:17:02.376Z,11.2
2023-01-28T12:18:02.396Z,11.2
2023-01-28T12:19:19.431Z,11.2
2023-01-28T12:20:11.638Z,11.2
2023-01-28T12:21:00.349Z,11.2
2023-01-28T12:22:19.830Z,11.2
2023-01-28T12:23:17.656Z,12.0
2023-01-28T12:24:01.387Z,12.0
2023-01-28T12:25:18.311Z,12.0
2023-01-28T12:26:09.549Z,12.0
2023-01-28T12:27:20.323Z,12.0
2023-01-28T12:28:16.602Z,11.9
2023-01-28T12:29:14.751Z,11.9
2023-01-28T12:30:18.569Z,11.9
2023-01-28T12:31:18.248Z,11.9
2023-01-28T12:32:20.296Z,11.9
2023-01-28T12:33:18.443Z,11.9
2023-01-28T12:34:17.610Z,11.9
2023-01-28T12:35:06.895Z,11.9
2023-01-28T12:36:11.326Z,11.9
2023-01-28T12:37:18.985Z,11.9
2023-01-28T12:38:07.839Z,11.3
2023-01-28T12:39:08.736Z,11.3
2023-01-28T12:40:14.136Z,11.3
2023-01-28T12:41:06.563Z,11.3
2023-01-28T12:42:11.485Z,11.3
2023-01-28T12:43:07.626Z,11.3
2023-01-28T12:44:03.810Z,11.3
2023-01-28T12:45:11.383Z,11.3
2023-01-28T12:46:08.463Z,11.3
2023-01-28T12:47:08.788Z,11.3
2023-01-28T12:48:07.071Z,10.7
2023-01-28T12:49:17.703Z,10.7
2023-01-28T12:50:14.113Z,10.7
2023-01-28T12:51:09.221Z,10.7
2023-01-28T12:52:10.339Z,10.7
2023-01-28T12:53:08.391Z,11.2
2023-01-28T12:54:10.495Z,11.2
2023-01-28T12:55:00.396Z,11.2
2023-01-28T12:56:20.206Z,11.2
2023-01-28T12:57:01.971Z,11.2
2023-01-28T12:58:01.578Z,10.0
2023-01-28T12:59:09.518Z,10.0
2023-01-28T13:00:11.401Z,10.0
2023-01-28T13:01:08.241Z,10.0
2023-01-28T13:02:01.444Z,10.0
2023-01-28T13:03:10.867Z,11.1
2023-01-28T13:04:20.277Z,11.1
2023-01-28T13:05:15.139Z,11.1
2023-01-28T13:06:08.857Z,11.1
2023-01-28T13:07:06.364Z,11.1
2023-01-28T13:08:09.637Z,10.3
2023-01-28T13:09:09.545Z,10.3
2023-01-28T13:10:14.995Z,10.3
2023-01-28T13:11:03.151Z,10.3
2023-01-28T13:12:01.860Z,10.3
2023-01-28T13:13:01.714Z,10.0
2023-01-28T13:14:02.566Z,10.0
2023-01-28T13:15:01.062Z,10.0
2023-01-28T13:16:02.421Z,10.0
2023-01-28T13:17:09.045Z,10.0
2023-01-28T13:18:02.381Z,9.7
2023-01-28T13:19:20.280Z,9.7